sensor_id;sensor_type;location;lat;lon;timestamp;P1;durP1;ratioP1;P2;durP2;ratioP2
77409;SDS011;66481;51.332;22.804;2023-02-15T00:03:04;45.30;;;20.42;;
77409;SDS011;66481;51.332;22.804;2023-02-15T00:07:05;50.15;;;22.70;;
77409;SDS011;66481;51.332;22.804;2023-02-15T00:11:06;47.45;;;22.88;;
77409;SDS011;66481;51.332;22.804;2023-02-15T00:15:08;45.28;;;22.77;;
77409;SDS011;66481;51.332;22.804;2023-02-15T00:19:10;44.65;;;22.08;;
77409;SDS011;66481;51.332;22.804;2023-02-15T00:23:12;42.35;;;21.13;;
77409;SDS011;66481;51.332;22.804;2023-02-15T00:27:13;44.65;;;22.85;;
77409;SDS011;66481;51.332;22.804;2023-02-15T00:31:14;48.70;;;21.67;;
77409;SDS011;66481;51.332;22.804;2023-02-15T00:35:15;42.08;;;20.20;;
77409;SDS011;66481;51.332;22.804;2023-02-15T00:39:17;45.00;;;20.25;;
77409;SDS011;66481;51.332;22.804;2023-02-15T00:43:19;38.47;;;20.85;;
77409;SDS011;66481;51.332;22.804;2023-02-15T00:47:20;38.25;;;19.67;;
77409;SDS011;66481;51.332;22.804;2023-02-15T00:51:21;40.67;;;18.85;;
77409;SDS011;66481;51.332;22.804;2023-02-15T00:55:21;41.67;;;19.00;;
77409;SDS011;66481;51.332;22.804;2023-02-15T00:59:22;47.22;;;21.30;;
77409;SDS011;66481;51.332;22.804;2023-02-15T01:03:23;40.47;;;19.70;;
77409;SDS011;66481;51.332;22.804;2023-02-15T01:07:24;37.92;;;18.38;;
77409;SDS011;66481;51.332;22.804;2023-02-15T01:11:25;45.00;;;19.70;;
77409;SDS011;66481;51.332;22.804;2023-02-15T01:15:26;42.08;;;19.80;;
77409;SDS011;66481;51.332;22.804;2023-02-15T01:19:27;41.55;;;20.17;;
77409;SDS011;66481;51.332;22.804;2023-02-15T01:23:28;42.72;;;19.65;;
77409;SDS011;66481;51.332;22.804;2023-02-15T01:27:29;44.25;;;19.88;;
77409;SDS011;66481;51.332;22.804;2023-02-15T01:31:31;42.58;;;20.02;;
77409;SDS011;66481;51.332;22.804;2023-02-15T01:35:32;41.05;;;20.08;;
77409;SDS011;66481;51.332;22.804;2023-02-15T01:39:33;42.65;;;18.42;;
77409;SDS011;66481;51.332;22.804;2023-02-15T01:43:41;43.15;;;19.60;;
77409;SDS011;66481;51.332;22.804;2023-02-15T01:47:57;38.00;;;17.73;;
77409;SDS011;66481;51.332;22.804;2023-02-15T01:52:02;46.58;;;22.10;;
77409;SDS011;66481;51.332;22.804;2023-02-15T01:56:05;45.45;;;20.00;;
77409;SDS011;66481;51.332;22.804;2023-02-15T02:00:11;48.47;;;20.27;;
77409;SDS011;66481;51.332;22.804;2023-02-15T02:04:23;50.45;;;21.02;;
77409;SDS011;66481;51.332;22.804;2023-02-15T02:08:30;45.67;;;20.42;;
77409;SDS011;66481;51.332;22.804;2023-02-15T02:12:33;47.83;;;20.23;;
77409;SDS011;66481;51.332;22.804;2023-02-15T02:20:52;45.03;;;17.67;;
77409;SDS011;66481;51.332;22.804;2023-02-15T02:29:17;51.72;;;23.17;;
77409;SDS011;66481;51.332;22.804;2023-02-15T02:50:25;47.70;;;20.48;;
77409;SDS011;66481;51.332;22.804;2023-02-15T02:54:28;48.25;;;19.10;;
77409;SDS011;66481;51.332;22.804;2023-02-15T02:58:36;46.20;;;19.63;;
77409;SDS011;66481;51.332;22.804;2023-02-15T03:02:41;54.03;;;21.75;;
77409;SDS011;66481;51.332;22.804;2023-02-15T03:06:58;50.90;;;21.65;;
77409;SDS011;66481;51.332;22.804;2023-02-15T03:11:03;52.45;;;22.88;;
77409;SDS011;66481;51.332;22.804;2023-02-15T03:19:13;51.28;;;21.67;;
77409;SDS011;66481;51.332;22.804;2023-02-15T03:23:24;41.35;;;20.88;;
77409;SDS011;66481;51.332;22.804;2023-02-15T03:27:33;51.08;;;21.63;;
77409;SDS011;66481;51.332;22.804;2023-02-15T03:31:40;48.28;;;22.27;;
77409;SDS011;66481;51.332;22.804;2023-02-15T03:35:45;52.78;;;21.10;;
77409;SDS011;66481;51.332;22.804;2023-02-15T03:40:36;50.40;;;22.15;;
77409;SDS011;66481;51.332;22.804;2023-02-15T03:44:54;55.45;;;21.60;;
77409;SDS011;66481;51.332;22.804;2023-02-15T03:48:58;53.65;;;21.08;;
77409;SDS011;66481;51.332;22.804;2023-02-15T03:53:05;43.78;;;18.88;;
77409;SDS011;66481;51.332;22.804;2023-02-15T03:57:16;47.60;;;20.52;;
77409;SDS011;66481;51.332;22.804;2023-02-15T04:01:46;47.70;;;20.75;;
77409;SDS011;66481;51.332;22.804;2023-02-15T04:06:03;50.40;;;21.77;;
77409;SDS011;66481;51.332;22.804;2023-02-15T04:10:05;39.90;;;17.58;;
77409;SDS011;66481;51.332;22.804;2023-02-15T04:14:24;44.15;;;18.42;;
77409;SDS011;66481;51.332;22.804;2023-02-15T04:18:44;38.50;;;15.75;;
77409;SDS011;66481;51.332;22.804;2023-02-15T04:23:05;27.20;;;14.80;;
77409;SDS011;66481;51.332;22.804;2023-02-15T04:27:26;27.02;;;12.55;;
77409;SDS011;66481;51.332;22.804;2023-02-15T04:31:27;27.58;;;14.95;;
77409;SDS011;66481;51.332;22.804;2023-02-15T04:35:28;25.05;;;12.90;;
77409;SDS011;66481;51.332;22.804;2023-02-15T04:39:29;25.98;;;13.40;;
77409;SDS011;66481;51.332;22.804;2023-02-15T04:43:29;24.42;;;12.02;;
77409;SDS011;66481;51.332;22.804;2023-02-15T04:47:30;26.10;;;11.82;;
77409;SDS011;66481;51.332;22.804;2023-02-15T04:51:32;24.75;;;11.95;;
77409;SDS011;66481;51.332;22.804;2023-02-15T04:55:33;25.77;;;11.07;;
77409;SDS011;66481;51.332;22.804;2023-02-15T04:59:34;27.27;;;13.88;;
77409;SDS011;66481;51.332;22.804;2023-02-15T05:03:35;25.73;;;13.90;;
77409;SDS011;66481;51.332;22.804;2023-02-15T05:07:36;30.98;;;14.07;;
77409;SDS011;66481;51.332;22.804;2023-02-15T05:11:37;24.63;;;12.23;;
77409;SDS011;66481;51.332;22.804;2023-02-15T05:15:39;27.77;;;14.52;;
77409;SDS011;66481;51.332;22.804;2023-02-15T05:19:39;33.78;;;18.48;;
77409;SDS011;66481;51.332;22.804;2023-02-15T05:23:40;26.90;;;14.98;;
77409;SDS011;66481;51.332;22.804;2023-02-15T05:27:43;35.53;;;17.10;;
77409;SDS011;66481;51.332;22.804;2023-02-15T05:32:02;30.75;;;14.70;;
77409;SDS011;66481;51.332;22.804;2023-02-15T05:36:04;34.63;;;15.75;;
77409;SDS011;66481;51.332;22.804;2023-02-15T05:40:06;28.83;;;15.20;;
77409;SDS011;66481;51.332;22.804;2023-02-15T05:44:08;30.75;;;12.68;;
77409;SDS011;66481;51.332;22.804;2023-02-15T05:48:09;22.63;;;11.43;;
77409;SDS011;66481;51.332;22.804;2023-02-15T05:52:11;30.15;;;14.82;;
77409;SDS011;66481;51.332;22.804;2023-02-15T05:56:13;28.98;;;14.88;;
77409;SDS011;66481;51.332;22.804;2023-02-15T06:00:14;25.35;;;11.95;;
77409;SDS011;66481;51.332;22.804;2023-02-15T06:04:15;26.95;;;13.07;;
77409;SDS011;66481;51.332;22.804;2023-02-15T06:08:16;25.30;;;12.45;;
77409;SDS011;66481;51.332;22.804;2023-02-15T06:12:18;25.13;;;13.02;;
77409;SDS011;66481;51.332;22.804;2023-02-15T06:16:19;26.88;;;12.95;;
77409;SDS011;66481;51.332;22.804;2023-02-15T06:20:20;21.92;;;12.55;;
77409;SDS011;66481;51.332;22.804;2023-02-15T06:24:21;23.13;;;11.40;;
77409;SDS011;66481;51.332;22.804;2023-02-15T06:28:22;30.05;;;12.25;;
77409;SDS011;66481;51.332;22.804;2023-02-15T06:32:23;22.80;;;12.93;;
77409;SDS011;66481;51.332;22.804;2023-02-15T06:36:25;30.33;;;14.50;;
77409;SDS011;66481;51.332;22.804;2023-02-15T06:40:26;23.88;;;11.93;;
77409;SDS011;66481;51.332;22.804;2023-02-15T06:44:27;27.48;;;13.27;;
77409;SDS011;66481;51.332;22.804;2023-02-15T06:48:29;23.58;;;11.55;;
77409;SDS011;66481;51.332;22.804;2023-02-15T06:52:30;24.63;;;11.88;;
77409;SDS011;66481;51.332;22.804;2023-02-15T06:56:31;23.00;;;12.48;;
77409;SDS011;66481;51.332;22.804;2023-02-15T07:00:32;28.40;;;12.55;;
77409;SDS011;66481;51.332;22.804;2023-02-15T07:04:33;21.80;;;12.18;;
77409;SDS011;66481;51.332;22.804;2023-02-15T07:08:35;26.65;;;12.52;;
77409;SDS011;66481;51.332;22.804;2023-02-15T07:12:37;30.38;;;12.55;;
77409;SDS011;66481;51.332;22.804;2023-02-15T07:16:42;30.17;;;13.07;;
77409;SDS011;66481;51.332;22.804;2023-02-15T07:20:43;25.55;;;12.13;;
77409;SDS011;66481;51.332;22.804;2023-02-15T07:24:44;25.85;;;11.65;;
77409;SDS011;66481;51.332;22.804;2023-02-15T07:28:45;26.75;;;13.15;;
77409;SDS011;66481;51.332;22.804;2023-02-15T07:32:46;26.15;;;13.30;;
77409;SDS011;66481;51.332;22.804;2023-02-15T07:37:05;36.35;;;14.32;;
77409;SDS011;66481;51.332;22.804;2023-02-15T07:41:08;38.58;;;18.92;;
77409;SDS011;66481;51.332;22.804;2023-02-15T07:45:11;40.13;;;16.65;;
77409;SDS011;66481;51.332;22.804;2023-02-15T07:49:14;37.75;;;15.77;;
77409;SDS011;66481;51.332;22.804;2023-02-15T07:53:15;37.78;;;16.48;;
77409;SDS011;66481;51.332;22.804;2023-02-15T07:57:16;34.25;;;15.73;;
77409;SDS011;66481;51.332;22.804;2023-02-15T08:01:21;32.83;;;16.02;;
77409;SDS011;66481;51.332;22.804;2023-02-15T08:05:23;28.58;;;12.60;;
77409;SDS011;66481;51.332;22.804;2023-02-15T08:09:24;25.65;;;12.23;;
77409;SDS011;66481;51.332;22.804;2023-02-15T08:13:25;23.92;;;12.82;;
77409;SDS011;66481;51.332;22.804;2023-02-15T08:17:26;24.50;;;14.52;;
77409;SDS011;66481;51.332;22.804;2023-02-15T08:21:28;20.98;;;10.82;;
77409;SDS011;66481;51.332;22.804;2023-02-15T08:25:29;20.13;;;10.50;;
77409;SDS011;66481;51.332;22.804;2023-02-15T08:29:30;27.35;;;14.20;;
77409;SDS011;66481;51.332;22.804;2023-02-15T08:33:32;26.38;;;13.48;;
77409;SDS011;66481;51.332;22.804;2023-02-15T08:37:34;28.92;;;16.40;;
77409;SDS011;66481;51.332;22.804;2023-02-15T08:41:35;29.92;;;14.88;;
77409;SDS011;66481;51.332;22.804;2023-02-15T08:45:38;26.13;;;14.23;;
77409;SDS011;66481;51.332;22.804;2023-02-15T08:49:39;28.45;;;14.27;;
77409;SDS011;66481;51.332;22.804;2023-02-15T08:53:41;24.95;;;13.65;;
77409;SDS011;66481;51.332;22.804;2023-02-15T09:01:46;28.02;;;13.90;;
77409;SDS011;66481;51.332;22.804;2023-02-15T09:05:49;24.17;;;13.85;;
77409;SDS011;66481;51.332;22.804;2023-02-15T09:09:50;24.80;;;13.57;;
77409;SDS011;66481;51.332;22.804;2023-02-15T09:13:58;22.70;;;13.13;;
77409;SDS011;66481;51.332;22.804;2023-02-15T09:18:01;24.67;;;13.63;;
77409;SDS011;66481;51.332;22.804;2023-02-15T09:22:06;28.10;;;15.07;;
77409;SDS011;66481;51.332;22.804;2023-02-15T09:26:09;24.70;;;13.52;;
77409;SDS011;66481;51.332;22.804;2023-02-15T09:30:13;24.38;;;12.93;;
77409;SDS011;66481;51.332;22.804;2023-02-15T09:34:15;26.60;;;15.80;;
77409;SDS011;66481;51.332;22.804;2023-02-15T09:38:17;23.05;;;14.82;;
77409;SDS011;66481;51.332;22.804;2023-02-15T10:00:03;26.08;;;14.93;;
77409;SDS011;66481;51.332;22.804;2023-02-15T10:17:07;21.15;;;12.43;;
77409;SDS011;66481;51.332;22.804;2023-02-15T10:26:01;26.75;;;13.60;;
77409;SDS011;66481;51.332;22.804;2023-02-15T10:34:33;29.83;;;14.70;;
77409;SDS011;66481;51.332;22.804;2023-02-15T10:38:41;29.48;;;16.15;;
77409;SDS011;66481;51.332;22.804;2023-02-15T10:51:20;32.13;;;16.38;;
77409;SDS011;66481;51.332;22.804;2023-02-15T10:55:37;33.35;;;17.15;;
77409;SDS011;66481;51.332;22.804;2023-02-15T11:09:10;31.48;;;17.08;;
77409;SDS011;66481;51.332;22.804;2023-02-15T11:13:17;33.97;;;17.83;;
77409;SDS011;66481;51.332;22.804;2023-02-15T11:17:21;33.03;;;17.90;;
77409;SDS011;66481;51.332;22.804;2023-02-15T11:22:00;35.40;;;17.33;;
77409;SDS011;66481;51.332;22.804;2023-02-15T11:26:02;39.53;;;19.77;;
77409;SDS011;66481;51.332;22.804;2023-02-15T11:30:25;37.15;;;19.23;;
77409;SDS011;66481;51.332;22.804;2023-02-15T11:34:50;40.72;;;20.48;;
77409;SDS011;66481;51.332;22.804;2023-02-15T11:39:00;36.80;;;20.00;;
77409;SDS011;66481;51.332;22.804;2023-02-15T11:47:12;35.78;;;18.38;;
77409;SDS011;66481;51.332;22.804;2023-02-15T11:51:16;36.25;;;19.52;;
77409;SDS011;66481;51.332;22.804;2023-02-15T11:55:20;39.42;;;20.15;;
77409;SDS011;66481;51.332;22.804;2023-02-15T11:59:27;41.45;;;22.98;;
77409;SDS011;66481;51.332;22.804;2023-02-15T12:08:12;46.30;;;25.10;;
77409;SDS011;66481;51.332;22.804;2023-02-15T12:16:27;45.40;;;25.08;;
77409;SDS011;66481;51.332;22.804;2023-02-15T12:20:33;48.25;;;25.05;;
77409;SDS011;66481;51.332;22.804;2023-02-15T12:24:37;45.53;;;25.02;;
77409;SDS011;66481;51.332;22.804;2023-02-15T12:28:48;45.45;;;24.65;;
77409;SDS011;66481;51.332;22.804;2023-02-15T12:32:56;49.28;;;25.85;;
77409;SDS011;66481;51.332;22.804;2023-02-15T12:37:27;47.33;;;25.58;;
77409;SDS011;66481;51.332;22.804;2023-02-15T12:41:32;46.78;;;24.52;;
77409;SDS011;66481;51.332;22.804;2023-02-15T12:45:35;47.60;;;23.23;;
77409;SDS011;66481;51.332;22.804;2023-02-15T12:49:38;49.65;;;25.40;;
77409;SDS011;66481;51.332;22.804;2023-02-15T12:53:39;46.53;;;26.15;;
77409;SDS011;66481;51.332;22.804;2023-02-15T12:57:40;45.55;;;24.25;;
77409;SDS011;66481;51.332;22.804;2023-02-15T13:01:44;42.72;;;23.35;;
77409;SDS011;66481;51.332;22.804;2023-02-15T13:05:53;42.17;;;23.30;;
77409;SDS011;66481;51.332;22.804;2023-02-15T13:09:56;44.80;;;23.17;;
77409;SDS011;66481;51.332;22.804;2023-02-15T13:13:59;42.90;;;23.45;;
77409;SDS011;66481;51.332;22.804;2023-02-15T13:18:02;43.72;;;22.08;;
77409;SDS011;66481;51.332;22.804;2023-02-15T13:22:08;43.55;;;22.50;;
77409;SDS011;66481;51.332;22.804;2023-02-15T13:26:16;40.70;;;20.50;;
77409;SDS011;66481;51.332;22.804;2023-02-15T13:30:27;33.90;;;18.90;;
77409;SDS011;66481;51.332;22.804;2023-02-15T13:34:36;31.85;;;17.13;;
77409;SDS011;66481;51.332;22.804;2023-02-15T14:01:11;32.55;;;15.85;;
77409;SDS011;66481;51.332;22.804;2023-02-15T14:05:35;27.90;;;14.70;;
77409;SDS011;66481;51.332;22.804;2023-02-15T14:09:43;33.05;;;17.20;;
77409;SDS011;66481;51.332;22.804;2023-02-15T14:18:20;29.27;;;15.90;;
77409;SDS011;66481;51.332;22.804;2023-02-15T14:22:35;33.10;;;15.00;;
77409;SDS011;66481;51.332;22.804;2023-02-15T14:31:11;32.15;;;16.20;;
77409;SDS011;66481;51.332;22.804;2023-02-15T14:35:17;31.15;;;16.17;;
77409;SDS011;66481;51.332;22.804;2023-02-15T14:39:29;35.63;;;17.50;;
77409;SDS011;66481;51.332;22.804;2023-02-15T14:53:17;32.15;;;15.43;;
77409;SDS011;66481;51.332;22.804;2023-02-15T14:57:40;32.33;;;17.27;;
77409;SDS011;66481;51.332;22.804;2023-02-15T15:02:21;35.35;;;16.95;;
77409;SDS011;66481;51.332;22.804;2023-02-15T15:06:28;28.63;;;14.40;;
77409;SDS011;66481;51.332;22.804;2023-02-15T15:10:38;35.58;;;14.75;;
77409;SDS011;66481;51.332;22.804;2023-02-15T15:14:42;37.80;;;16.42;;
77409;SDS011;66481;51.332;22.804;2023-02-15T15:18:45;34.75;;;18.83;;
77409;SDS011;66481;51.332;22.804;2023-02-15T15:22:50;33.17;;;15.68;;
77409;SDS011;66481;51.332;22.804;2023-02-15T15:27:35;36.70;;;16.83;;
77409;SDS011;66481;51.332;22.804;2023-02-15T15:49:37;36.72;;;18.50;;
77409;SDS011;66481;51.332;22.804;2023-02-15T15:53:42;37.65;;;17.30;;
77409;SDS011;66481;51.332;22.804;2023-02-15T15:57:52;38.28;;;16.83;;
77409;SDS011;66481;51.332;22.804;2023-02-15T16:02:05;43.67;;;20.58;;
77409;SDS011;66481;51.332;22.804;2023-02-15T16:10:36;83.93;;;37.65;;
77409;SDS011;66481;51.332;22.804;2023-02-15T16:14:39;53.70;;;24.45;;
77409;SDS011;66481;51.332;22.804;2023-02-15T16:18:48;52.10;;;22.48;;
77409;SDS011;66481;51.332;22.804;2023-02-15T16:27:40;51.10;;;22.02;;
77409;SDS011;66481;51.332;22.804;2023-02-15T16:32:00;58.20;;;26.95;;
77409;SDS011;66481;51.332;22.804;2023-02-15T16:36:05;49.22;;;24.25;;
77409;SDS011;66481;51.332;22.804;2023-02-15T16:44:27;91.47;;;37.47;;
77409;SDS011;66481;51.332;22.804;2023-02-15T16:48:33;226.98;;;103.13;;
77409;SDS011;66481;51.332;22.804;2023-02-15T16:52:42;113.22;;;49.72;;
77409;SDS011;66481;51.332;22.804;2023-02-15T16:56:45;91.20;;;42.33;;
77409;SDS011;66481;51.332;22.804;2023-02-15T17:00:47;96.57;;;42.25;;
77409;SDS011;66481;51.332;22.804;2023-02-15T17:09:14;71.80;;;29.60;;
77409;SDS011;66481;51.332;22.804;2023-02-15T17:13:19;295.35;;;94.32;;
77409;SDS011;66481;51.332;22.804;2023-02-15T17:17:21;217.45;;;79.88;;
77409;SDS011;66481;51.332;22.804;2023-02-15T17:21:24;154.95;;;57.58;;
77409;SDS011;66481;51.332;22.804;2023-02-15T17:25:42;151.57;;;56.28;;
77409;SDS011;66481;51.332;22.804;2023-02-15T17:29:50;133.85;;;53.78;;
77409;SDS011;66481;51.332;22.804;2023-02-15T17:33:59;128.18;;;52.38;;
77409;SDS011;66481;51.332;22.804;2023-02-15T17:42:26;127.07;;;56.85;;
77409;SDS011;66481;51.332;22.804;2023-02-15T17:46:34;150.95;;;63.75;;
77409;SDS011;66481;51.332;22.804;2023-02-15T17:50:39;192.45;;;74.70;;
77409;SDS011;66481;51.332;22.804;2023-02-15T17:54:44;158.10;;;63.83;;
77409;SDS011;66481;51.332;22.804;2023-02-15T17:59:07;151.65;;;60.95;;
77409;SDS011;66481;51.332;22.804;2023-02-15T18:03:14;140.30;;;57.58;;
77409;SDS011;66481;51.332;22.804;2023-02-15T18:07:36;138.05;;;58.15;;
77409;SDS011;66481;51.332;22.804;2023-02-15T18:12:00;128.73;;;56.72;;
77409;SDS011;66481;51.332;22.804;2023-02-15T18:16:02;116.28;;;52.15;;
77409;SDS011;66481;51.332;22.804;2023-02-15T18:20:33;120.22;;;54.13;;
77409;SDS011;66481;51.332;22.804;2023-02-15T18:24:37;161.13;;;80.65;;
77409;SDS011;66481;51.332;22.804;2023-02-15T18:28:39;123.90;;;61.03;;
77409;SDS011;66481;51.332;22.804;2023-02-15T18:32:41;482.40;;;191.10;;
77409;SDS011;66481;51.332;22.804;2023-02-15T18:36:47;479.00;;;172.40;;
77409;SDS011;66481;51.332;22.804;2023-02-15T18:40:50;249.93;;;97.95;;
77409;SDS011;66481;51.332;22.804;2023-02-15T18:44:56;549.72;;;220.85;;
77409;SDS011;66481;51.332;22.804;2023-02-15T18:49:01;409.98;;;149.00;;
77409;SDS011;66481;51.332;22.804;2023-02-15T18:53:05;114.72;;;50.13;;
77409;SDS011;66481;51.332;22.804;2023-02-15T18:57:12;120.28;;;54.65;;
77409;SDS011;66481;51.332;22.804;2023-02-15T19:01:19;185.15;;;72.72;;
77409;SDS011;66481;51.332;22.804;2023-02-15T19:05:29;197.50;;;79.30;;
77409;SDS011;66481;51.332;22.804;2023-02-15T19:09:34;171.32;;;69.32;;
77409;SDS011;66481;51.332;22.804;2023-02-15T19:13:36;191.18;;;75.60;;
77409;SDS011;66481;51.332;22.804;2023-02-15T19:17:38;189.40;;;76.30;;
77409;SDS011;66481;51.332;22.804;2023-02-15T19:21:40;168.80;;;71.65;;
77409;SDS011;66481;51.332;22.804;2023-02-15T19:25:45;197.60;;;88.43;;
77409;SDS011;66481;51.332;22.804;2023-02-15T19:29:50;194.20;;;83.53;;
77409;SDS011;66481;51.332;22.804;2023-02-15T19:33:54;195.40;;;90.68;;
77409;SDS011;66481;51.332;22.804;2023-02-15T19:37:58;201.02;;;85.35;;
77409;SDS011;66481;51.332;22.804;2023-02-15T19:42:14;247.77;;;103.63;;
77409;SDS011;66481;51.332;22.804;2023-02-15T19:46:23;185.13;;;83.65;;
77409;SDS011;66481;51.332;22.804;2023-02-15T19:50:29;153.80;;;67.28;;
77409;SDS011;66481;51.332;22.804;2023-02-15T19:54:35;161.60;;;68.35;;
77409;SDS011;66481;51.332;22.804;2023-02-15T19:58:38;147.57;;;61.85;;
77409;SDS011;66481;51.332;22.804;2023-02-15T20:02:44;148.68;;;65.28;;
77409;SDS011;66481;51.332;22.804;2023-02-15T20:06:48;155.52;;;68.32;;
77409;SDS011;66481;51.332;22.804;2023-02-15T20:10:52;154.57;;;71.28;;
77409;SDS011;66481;51.332;22.804;2023-02-15T20:14:58;170.50;;;72.40;;
77409;SDS011;66481;51.332;22.804;2023-02-15T20:19:06;156.88;;;69.40;;
77409;SDS011;66481;51.332;22.804;2023-02-15T20:43:02;186.18;;;78.25;;
77409;SDS011;66481;51.332;22.804;2023-02-15T20:47:05;200.23;;;82.63;;
77409;SDS011;66481;51.332;22.804;2023-02-15T20:51:10;192.40;;;82.43;;
77409;SDS011;66481;51.332;22.804;2023-02-15T20:55:25;219.82;;;86.57;;
77409;SDS011;66481;51.332;22.804;2023-02-15T20:59:31;207.98;;;84.88;;
77409;SDS011;66481;51.332;22.804;2023-02-15T21:03:35;212.50;;;89.10;;
77409;SDS011;66481;51.332;22.804;2023-02-15T21:07:37;210.18;;;91.22;;
77409;SDS011;66481;51.332;22.804;2023-02-15T21:11:38;212.18;;;86.25;;
77409;SDS011;66481;51.332;22.804;2023-02-15T21:15:40;199.32;;;82.30;;
77409;SDS011;66481;51.332;22.804;2023-02-15T21:19:42;208.23;;;82.75;;
77409;SDS011;66481;51.332;22.804;2023-02-15T21:23:43;200.25;;;85.72;;
77409;SDS011;66481;51.332;22.804;2023-02-15T21:27:45;212.27;;;85.93;;
77409;SDS011;66481;51.332;22.804;2023-02-15T21:31:50;184.95;;;79.65;;
77409;SDS011;66481;51.332;22.804;2023-02-15T21:35:52;176.05;;;72.88;;
77409;SDS011;66481;51.332;22.804;2023-02-15T21:39:55;169.45;;;66.60;;
77409;SDS011;66481;51.332;22.804;2023-02-15T21:43:57;182.20;;;74.50;;
77409;SDS011;66481;51.332;22.804;2023-02-15T21:48:17;169.38;;;71.30;;
77409;SDS011;66481;51.332;22.804;2023-02-15T21:52:23;180.95;;;71.10;;
77409;SDS011;66481;51.332;22.804;2023-02-15T21:56:24;146.23;;;56.08;;
77409;SDS011;66481;51.332;22.804;2023-02-15T22:00:26;142.73;;;57.45;;
77409;SDS011;66481;51.332;22.804;2023-02-15T22:04:28;146.02;;;58.65;;
77409;SDS011;66481;51.332;22.804;2023-02-15T22:08:31;147.88;;;61.80;;
77409;SDS011;66481;51.332;22.804;2023-02-15T22:12:33;143.63;;;60.08;;
77409;SDS011;66481;51.332;22.804;2023-02-15T22:16:36;147.98;;;61.00;;
77409;SDS011;66481;51.332;22.804;2023-02-15T22:20:37;155.55;;;61.67;;
77409;SDS011;66481;51.332;22.804;2023-02-15T22:24:40;151.65;;;62.90;;
77409;SDS011;66481;51.332;22.804;2023-02-15T22:28:42;147.05;;;58.78;;
77409;SDS011;66481;51.332;22.804;2023-02-15T22:32:43;151.65;;;62.65;;
77409;SDS011;66481;51.332;22.804;2023-02-15T22:36:45;172.13;;;65.93;;
77409;SDS011;66481;51.332;22.804;2023-02-15T22:40:46;158.23;;;61.40;;
77409;SDS011;66481;51.332;22.804;2023-02-15T22:44:51;144.40;;;60.47;;
77409;SDS011;66481;51.332;22.804;2023-02-15T22:48:57;138.50;;;60.50;;
77409;SDS011;66481;51.332;22.804;2023-02-15T22:52:59;156.70;;;63.88;;
77409;SDS011;66481;51.332;22.804;2023-02-15T22:57:00;158.57;;;67.30;;
77409;SDS011;66481;51.332;22.804;2023-02-15T23:01:02;165.48;;;68.07;;
77409;SDS011;66481;51.332;22.804;2023-02-15T23:05:03;165.82;;;66.72;;
77409;SDS011;66481;51.332;22.804;2023-02-15T23:09:05;150.05;;;62.03;;
77409;SDS011;66481;51.332;22.804;2023-02-15T23:13:18;137.10;;;55.97;;
77409;SDS011;66481;51.332;22.804;2023-02-15T23:17:24;122.30;;;51.25;;
77409;SDS011;66481;51.332;22.804;2023-02-15T23:21:29;129.57;;;52.42;;
77409;SDS011;66481;51.332;22.804;2023-02-15T23:25:32;122.38;;;51.80;;
77409;SDS011;66481;51.332;22.804;2023-02-15T23:29:34;123.57;;;49.15;;
77409;SDS011;66481;51.332;22.804;2023-02-15T23:33:35;122.35;;;50.58;;
77409;SDS011;66481;51.332;22.804;2023-02-15T23:37:36;126.75;;;50.22;;
77409;SDS011;66481;51.332;22.804;2023-02-15T23:41:37;137.80;;;53.65;;
77409;SDS011;66481;51.332;22.804;2023-02-15T23:45:38;131.05;;;53.72;;
77409;SDS011;66481;51.332;22.804;2023-02-15T23:49:42;128.55;;;49.10;;
77409;SDS011;66481;51.332;22.804;2023-02-15T23:53:43;113.68;;;47.70;;
77409;SDS011;66481;51.332;22.804;2023-02-15T23:57:45;118.72;;;50.45;;
